Time;durP1;ratioP1;P1;durP2;ratioP2;P2;SDS_P1;SDS_P2;PMS_P1;PMS_P2;Temp;Humidity;BMP_temperature;BMP_pressure;BME280_temperature;BME280_humidity;BME280_pressure;Samples;Min_cycle;Max_cycle;Signal;HPM_P1;HPM_P2
2022/05/03 00:00:00;;;;;;;;;;;;;;;10.03;71.08;96266.53;4879684;29;19961;-73
2022/05/03 00:02:49;;;;;;;;;;;;;;;10.01;71.71;96281.66;4887842;29;19959;-74
2022/05/03 00:05:18;;;;;;;;;;;;;;;9.99;71.44;96280.28;4885671;29;20293;-73
2022/05/03 00:08:04;;;;;;;;;;;;;;;9.96;71.94;96279.69;4892995;29;19972;-73
2022/05/03 00:10:50;;;;;;;;;;;;;;;9.95;71.51;96278.13;4891886;29;20340;-73
2022/05/03 00:13:18;;;;;;;;;;;;;;;9.92;71.47;96275.91;4894585;29;19951;-73
2022/05/03 00:15:45;;;;;;;;;;;;;;;9.91;71.40;96273.50;4892110;29;19970;-74
2022/05/03 00:18:11;;;;;;;;;;;;;;;9.88;71.83;96277.38;4891740;29;19972;-73
2022/05/03 00:20:37;;;;;;;;;;;;;;;9.85;72.15;96272.56;4889870;29;19995;-73
2022/05/03 00:23:03;;;;;;;;;;;;;;;9.83;71.57;96260.72;4882986;29;19973;-74
2022/05/03 00:25:29;;;;;;;;;;;;;;;9.81;71.86;96274.03;4882965;29;20027;-73
2022/05/03 00:27:55;;;;;;;;;;;;;;;9.79;71.57;96268.19;4882699;29;19972;-74
2022/05/03 00:30:21;;;;;;;;;;;;;;;9.78;71.89;96271.03;4874799;29;20326;-73
2022/05/03 00:32:48;;;;;;;;;;;;;;;9.74;71.51;96260.19;4882751;29;19953;-73
2022/05/03 00:35:15;;;;;;;;;;;;;;;9.72;71.61;96260.41;4883174;29;19982;-73
2022/05/03 00:37:41;;;;;;;;;;;;;;;9.70;71.94;96264.25;4882758;29;19983;-74
2022/05/03 00:40:09;;;;;;;;;;;;;;;9.65;71.42;96257.03;4882607;29;20329;-74
2022/05/03 00:42:46;;;;;;;;;;;;;;;9.63;71.96;96255.66;4882272;29;19983;-73
2022/05/03 00:45:15;;;;;;;;;;;;;;;9.59;71.65;96249.25;4882748;29;19952;-73
2022/05/03 00:47:52;;;;;;;;;;;;;;;9.56;71.90;96253.13;4882484;29;19965;-73
2022/05/03 00:50:33;;;;;;;;;;;;;;;9.52;72.26;96251.94;4882687;29;20333;-73
2022/05/03 00:52:59;;;;;;;;;;;;;;;9.49;72.02;96249.75;4882270;29;19969;-72
2022/05/03 00:55:45;;;;;;;;;;;;;;;9.44;72.23;96253.00;4882582;29;19978;-73
2022/05/03 00:58:21;;;;;;;;;;;;;;;9.43;72.97;96258.44;4875192;29;19960;-73
2022/05/03 01:00:55;;;;;;;;;;;;;;;9.40;72.90;96254.44;4882284;29;19953;-73
2022/05/03 01:03:30;;;;;;;;;;;;;;;9.38;72.71;96250.44;4882124;29;20431;-73
2022/05/03 01:06:16;;;;;;;;;;;;;;;9.35;73.10;96246.47;4880908;29;19960;-73
2022/05/03 01:08:44;;;;;;;;;;;;;;;9.31;73.14;96246.06;4882344;29;19962;-73
2022/05/03 01:11:13;;;;;;;;;;;;;;;9.29;73.22;96249.94;4882057;29;19958;-73
2022/05/03 01:13:50;;;;;;;;;;;;;;;9.27;73.16;96242.28;4881880;29;19969;-74
2022/05/03 01:16:25;;;;;;;;;;;;;;;9.23;73.07;96241.09;4882918;29;19948;-73
2022/05/03 01:18:56;;;;;;;;;;;;;;;9.21;72.98;96234.50;4881940;29;20367;-73
2022/05/03 01:21:34;;;;;;;;;;;;;;;9.19;73.05;96237.31;4886231;29;19990;-73
2022/05/03 01:23:59;;;;;;;;;;;;;;;9.17;73.13;96233.31;4897228;29;19963;-73
2022/05/03 01:26:32;;;;;;;;;;;;;;;9.13;73.57;96230.31;4890142;29;19967;-75
2022/05/03 01:29:14;;;;;;;;;;;;;;;9.11;73.56;96237.56;4891297;29;19964;-73
2022/05/03 01:31:42;;;;;;;;;;;;;;;9.09;73.50;96237.81;4891941;29;19962;-73
2022/05/03 01:34:12;;;;;;;;;;;;;;;9.07;73.52;96239.84;4891092;29;19990;-73
2022/05/03 01:36:40;;;;;;;;;;;;;;;9.05;73.51;96233.19;4888873;29;19959;-73
2022/05/03 01:39:25;;;;;;;;;;;;;;;9.04;73.67;96235.03;4896136;29;19949;-73
2022/05/03 01:41:56;;;;;;;;;;;;;;;9.01;73.97;96235.47;4893203;29;19963;-73
2022/05/03 01:44:38;;;;;;;;;;;;;;;9.01;73.72;96237.25;4888040;29;19975;-73
2022/05/03 01:47:24;;;;;;;;;;;;;;;8.99;74.22;96237.50;4874971;29;19959;-73
2022/05/03 01:52:37;;;;;;;;;;;;;;;8.94;74.30;96237.31;4890409;29;19955;-73
2022/05/03 01:55:15;;;;;;;;;;;;;;;8.91;74.61;96232.50;4890035;29;20305;-74
2022/05/03 01:58:17;;;;;;;;;;;;;;;8.87;74.42;96231.34;4874391;29;19955;-73
2022/05/03 02:00:47;;;;;;;;;;;;;;;8.84;74.71;96240.41;4833820;29;19972;-73
2022/05/03 02:03:25;;;;;;;;;;;;;;;8.83;74.89;96238.78;4868859;29;19955;-73
2022/05/03 02:06:00;;;;;;;;;;;;;;;8.80;76.27;96231.38;4889265;29;19963;-73
2022/05/03 02:08:41;;;;;;;;;;;;;;;8.79;76.03;96232.38;4888222;29;20334;-73
2022/05/03 02:11:25;;;;;;;;;;;;;;;8.81;76.18;96237.41;4893769;29;20340;-73
2022/05/03 02:17:00;;;;;;;;;;;;;;;8.84;75.61;96244.81;4865806;29;19958;-73
2022/05/03 02:19:26;;;;;;;;;;;;;;;8.86;75.39;96248.03;4891357;29;19956;-74
2022/05/03 02:22:01;;;;;;;;;;;;;;;8.86;75.07;96248.84;4889216;29;20014;-73
2022/05/03 02:24:50;;;;;;;;;;;;;;;8.87;75.16;96252.25;4889359;29;19948;-74
2022/05/03 02:27:18;;;;;;;;;;;;;;;8.85;74.95;96255.06;4889309;29;19956;-73
2022/05/03 02:29:45;;;;;;;;;;;;;;;8.82;75.16;96252.88;4889913;29;19949;-73
2022/05/03 02:32:12;;;;;;;;;;;;;;;8.80;74.88;96259.31;4891634;29;19957;-73
2022/05/03 02:34:43;;;;;;;;;;;;;;;8.77;74.95;96259.75;4893030;29;19973;-72
2022/05/03 02:37:16;;;;;;;;;;;;;;;8.72;74.83;96250.72;4889848;29;19954;-73
2022/05/03 02:39:57;;;;;;;;;;;;;;;8.69;74.73;96248.56;4885979;29;20454;-74
2022/05/03 02:42:23;;;;;;;;;;;;;;;8.66;74.75;96248.16;4892005;29;19961;-73
2022/05/03 02:44:49;;;;;;;;;;;;;;;8.62;74.64;96247.78;4888897;29;20331;-73
2022/05/03 02:47:31;;;;;;;;;;;;;;;8.58;74.65;96246.59;4889488;29;19961;-73
2022/05/03 02:50:03;;;;;;;;;;;;;;;8.54;74.23;96245.41;4878302;29;20330;-72
2022/05/03 02:52:39;;;;;;;;;;;;;;;8.52;74.59;96244.81;4887060;29;19966;-74
2022/05/03 02:55:12;;;;;;;;;;;;;;;8.47;74.55;96240.22;4892656;29;19966;-73
2022/05/03 02:57:56;;;;;;;;;;;;;;;8.45;74.28;96249.28;4895789;29;19961;-73
2022/05/03 03:03:16;;;;;;;;;;;;;;;8.39;74.80;96247.47;4888606;29;19955;-73
2022/05/03 03:05:43;;;;;;;;;;;;;;;8.34;74.46;96240.25;4888495;29;19956;-72
2022/05/03 03:08:13;;;;;;;;;;;;;;;8.32;74.63;96252.72;4893008;29;19958;-72
2022/05/03 03:10:48;;;;;;;;;;;;;;;8.30;74.26;96239.06;4888067;29;19966;-72
2022/05/03 03:13:24;;;;;;;;;;;;;;;8.28;74.54;96241.09;4886110;29;19954;-73
2022/05/03 03:15:51;;;;;;;;;;;;;;;8.25;74.58;96237.09;4889667;29;19974;-72
2022/05/03 03:18:20;;;;;;;;;;;;;;;8.25;74.55;96251.94;4894140;29;20299;-72
2022/05/03 03:20:53;;;;;;;;;;;;;;;8.21;75.21;96242.91;4891916;29;20335;-72
2022/05/03 03:23:20;;;;;;;;;;;;;;;8.19;74.97;96243.16;4887664;29;19974;-72
2022/05/03 03:25:47;;;;;;;;;;;;;;;8.17;74.63;96254.78;4887948;29;19959;-73
2022/05/03 03:28:13;;;;;;;;;;;;;;;8.13;74.56;96250.00;4894395;29;19965;-73
2022/05/03 03:30:44;;;;;;;;;;;;;;;8.09;74.62;96246.19;4888885;29;19982;-73
2022/05/03 03:33:12;;;;;;;;;;;;;;;8.07;74.48;96244.78;4886909;29;19960;-73
2022/05/03 03:35:38;;;;;;;;;;;;;;;8.03;74.86;96246.22;4889046;29;19967;-72
2022/05/03 03:38:38;;;;;;;;;;;;;;;8.01;75.80;96254.25;4835786;29;19959;-73
2022/05/03 03:41:04;;;;;;;;;;;;;;;8.00;75.60;96254.44;4894566;29;19961;-73
2022/05/03 03:43:30;;;;;;;;;;;;;;;8.00;75.64;96251.84;4886939;29;19955;-72
2022/05/03 03:45:56;;;;;;;;;;;;;;;7.99;76.08;96255.47;4886736;29;20296;-73
2022/05/03 03:48:22;;;;;;;;;;;;;;;7.99;76.25;96251.03;4888352;29;19970;-73
2022/05/03 03:50:47;;;;;;;;;;;;;;;7.99;76.27;96251.03;4888610;29;19958;-73
2022/05/03 03:53:14;;;;;;;;;;;;;;;8.00;76.25;96250.03;4889888;29;19963;-73
2022/05/03 03:55:40;;;;;;;;;;;;;;;7.99;76.45;96245.03;4889583;29;19973;-73
2022/05/03 03:58:06;;;;;;;;;;;;;;;7.98;76.20;96253.84;4884257;29;19962;-73
2022/05/03 04:00:32;;;;;;;;;;;;;;;7.94;75.98;96250.88;4893110;29;19970;-72
2022/05/03 04:02:59;;;;;;;;;;;;;;;7.92;75.93;96252.88;4891508;29;19951;-72
2022/05/03 04:05:26;;;;;;;;;;;;;;;7.88;75.75;96255.09;4882804;29;19957;-73
2022/05/03 04:07:52;;;;;;;;;;;;;;;7.85;75.77;96252.06;4889664;29;19962;-73
2022/05/03 04:10:19;;;;;;;;;;;;;;;7.82;75.59;96253.28;4891406;29;19961;-73
2022/05/03 04:12:45;;;;;;;;;;;;;;;7.79;75.49;96250.28;4885204;29;19956;-74
2022/05/03 04:15:11;;;;;;;;;;;;;;;7.80;75.32;96250.09;4885977;29;20433;-73
2022/05/03 04:17:37;;;;;;;;;;;;;;;7.79;75.47;96248.50;4893025;29;19964;-73
2022/05/03 04:20:03;;;;;;;;;;;;;;;7.78;75.90;96253.91;4888211;29;20376;-73
2022/05/03 04:22:30;;;;;;;;;;;;;;;7.76;75.65;96256.72;4870429;29;19965;-73
2022/05/03 04:24:57;;;;;;;;;;;;;;;7.75;75.46;96259.53;4884940;29;20403;-73
2022/05/03 04:27:23;;;;;;;;;;;;;;;7.73;75.46;96259.75;4887880;29;19958;-74
2022/05/03 04:29:50;;;;;;;;;;;;;;;7.71;75.65;96259.16;4893735;29;19959;-73
2022/05/03 04:32:16;;;;;;;;;;;;;;;7.71;75.82;96265.16;4887626;29;20313;-73
2022/05/03 04:34:42;;;;;;;;;;;;;;;7.70;75.63;96257.53;4889469;29;19972;-73
2022/05/03 04:37:08;;;;;;;;;;;;;;;7.75;75.68;96262.13;4882483;29;19958;-74
2022/05/03 04:39:34;;;;;;;;;;;;;;;7.79;75.62;96272.00;4894603;29;20416;-73
2022/05/03 04:42:00;;;;;;;;;;;;;;;7.86;75.67;96264.94;4891491;29;20409;-73
2022/05/03 04:44:27;;;;;;;;;;;;;;;7.93;75.83;96264.91;4891357;29;19966;-72
2022/05/03 04:46:53;;;;;;;;;;;;;;;8.02;75.93;96271.53;4889740;29;19980;-73
2022/05/03 04:49:19;;;;;;;;;;;;;;;8.15;75.72;96275.91;4892133;29;20159;-72
2022/05/03 04:51:45;;;;;;;;;;;;;;;8.34;75.81;96271.63;4893347;29;19957;-73
2022/05/03 04:54:11;;;;;;;;;;;;;;;8.62;75.32;96271.28;4891499;29;20306;-73
2022/05/03 04:56:37;;;;;;;;;;;;;;;8.89;74.89;96264.09;4889752;29;19971;-73
2022/05/03 04:59:03;;;;;;;;;;;;;;;9.21;74.37;96266.69;4887942;29;19957;-73
2022/05/03 05:01:29;;;;;;;;;;;;;;;9.51;73.80;96258.19;4892332;29;19970;-74
2022/05/03 05:03:55;;;;;;;;;;;;;;;9.80;73.08;96261.94;4892044;29;19954;-73
2022/05/03 05:06:21;;;;;;;;;;;;;;;10.00;72.46;96256.50;4890073;29;19968;-73
2022/05/03 05:08:48;;;;;;;;;;;;;;;10.00;72.01;96261.72;4891721;29;19949;-73
2022/05/03 05:11:14;;;;;;;;;;;;;;;9.92;72.25;96262.81;4895250;29;19958;-73
2022/05/03 05:13:39;;;;;;;;;;;;;;;9.86;72.62;96262.88;4890626;29;20009;-73
2022/05/03 05:16:06;;;;;;;;;;;;;;;9.80;72.63;96269.78;4887387;29;20059;-73
2022/05/03 05:18:33;;;;;;;;;;;;;;;9.74;73.35;96270.66;4897173;29;20327;-74
2022/05/03 05:21:02;;;;;;;;;;;;;;;9.65;74.11;96278.00;4881761;29;20478;-73
2022/05/03 05:23:28;;;;;;;;;;;;;;;9.62;74.42;96275.03;4881939;29;19963;-73
2022/05/03 05:25:54;;;;;;;;;;;;;;;9.63;74.13;96274.00;4881890;29;19963;-73
2022/05/03 05:28:21;;;;;;;;;;;;;;;9.67;74.49;96280.41;4881368;29;19950;-73
2022/05/03 05:30:49;;;;;;;;;;;;;;;9.75;75.01;96280.91;4881805;29;19955;-73
2022/05/03 05:33:15;;;;;;;;;;;;;;;9.83;74.81;96282.47;4882000;29;19963;-73
2022/05/03 05:35:41;;;;;;;;;;;;;;;9.83;74.38;96279.84;4881560;29;19982;-73
2022/05/03 05:38:07;;;;;;;;;;;;;;;9.74;74.79;96296.84;4881582;29;19963;-73
2022/05/03 05:40:33;;;;;;;;;;;;;;;9.72;75.53;96291.00;4881500;29;19967;-73
2022/05/03 05:43:00;;;;;;;;;;;;;;;9.74;75.93;96295.03;4881498;29;19961;-73
2022/05/03 05:45:26;;;;;;;;;;;;;;;9.79;75.42;96291.78;4882319;29;20299;-73
2022/05/03 05:47:52;;;;;;;;;;;;;;;9.84;74.88;96293.72;4881635;29;19961;-73
2022/05/03 05:50:18;;;;;;;;;;;;;;;9.84;75.27;96301.59;4880599;29;19966;-73
2022/05/03 05:55:28;;;;;;;;;;;;;;;9.74;75.59;96297.66;4881443;29;19974;-73
2022/05/03 05:57:57;;;;;;;;;;;;;;;9.72;75.26;96298.88;4882023;29;20404;-73
2022/05/03 06:00:22;;;;;;;;;;;;;;;9.67;75.74;96302.13;4881214;29;19957;-73
2022/05/03 06:02:48;;;;;;;;;;;;;;;9.57;76.19;96311.50;4880952;29;19950;-73
2022/05/03 06:05:14;;;;;;;;;;;;;;;9.48;76.74;96303.91;4881157;29;19961;-74
2022/05/03 06:07:40;;;;;;;;;;;;;;;9.46;76.86;96310.38;4872332;29;20088;-73
2022/05/03 06:10:06;;;;;;;;;;;;;;;9.48;76.95;96309.16;4870847;29;19965;-73
2022/05/03 06:12:32;;;;;;;;;;;;;;;9.50;76.77;96306.31;4880952;29;19964;-73
2022/05/03 06:14:58;;;;;;;;;;;;;;;9.54;76.93;96302.25;4881100;29;20013;-75
2022/05/03 06:17:24;;;;;;;;;;;;;;;9.61;76.51;96304.81;4881073;29;19958;-73
2022/05/03 06:19:50;;;;;;;;;;;;;;;9.64;76.22;96301.75;4885502;29;19991;-73
2022/05/03 06:22:15;;;;;;;;;;;;;;;9.58;75.12;96292.97;4886194;29;19992;-73
2022/05/03 06:24:45;;;;;;;;;;;;;;;9.50;77.33;96309.75;4888724;29;19963;-73
2022/05/03 06:27:12;;;;;;;;;;;;;;;9.47;77.85;96304.94;4889637;29;19987;-73
2022/05/03 06:29:37;;;;;;;;;;;;;;;9.52;78.07;96302.47;4894838;29;20439;-73
2022/05/03 06:32:04;;;;;;;;;;;;;;;9.60;77.21;96309.25;4887031;29;19959;-73
2022/05/03 06:34:30;;;;;;;;;;;;;;;9.65;78.09;96308.63;4890701;29;20349;-73
2022/05/03 06:36:56;;;;;;;;;;;;;;;9.73;78.13;96314.38;4890311;29;19974;-73
2022/05/03 06:39:22;;;;;;;;;;;;;;;9.82;78.03;96316.72;4890347;29;19965;-73
2022/05/03 06:41:48;;;;;;;;;;;;;;;9.87;77.35;96306.38;4890382;29;20053;-73
2022/05/03 06:44:14;;;;;;;;;;;;;;;9.92;77.54;96304.72;4892308;29;20374;-73
2022/05/03 06:46:39;;;;;;;;;;;;;;;10.01;78.48;96307.06;4890729;29;20429;-73
2022/05/03 06:49:05;;;;;;;;;;;;;;;10.11;77.57;96305.53;4893264;29;20420;-73
2022/05/03 06:51:31;;;;;;;;;;;;;;;10.23;77.57;96310.88;4888381;29;20012;-73
2022/05/03 06:53:57;;;;;;;;;;;;;;;10.34;77.11;96312.78;4889927;29;19953;-74
2022/05/03 06:56:23;;;;;;;;;;;;;;;10.42;76.60;96314.31;4888926;29;20470;-73
2022/05/03 06:58:49;;;;;;;;;;;;;;;10.53;77.04;96315.38;4896200;29;20000;-74
2022/05/03 07:01:15;;;;;;;;;;;;;;;10.64;76.95;96313.84;4885921;29;19964;-73
2022/05/03 07:03:41;;;;;;;;;;;;;;;10.73;76.83;96315.13;4886721;29;19959;-74
2022/05/03 07:06:08;;;;;;;;;;;;;;;10.81;76.27;96314.03;4889632;29;19969;-73
2022/05/03 07:08:34;;;;;;;;;;;;;;;10.84;76.96;96321.47;4892801;29;20325;-73
2022/05/03 07:11:00;;;;;;;;;;;;;;;10.85;76.05;96320.44;4890667;29;19971;-73
2022/05/03 07:13:26;;;;;;;;;;;;;;;10.78;76.76;96325.75;4889133;29;19961;-73
2022/05/03 07:15:53;;;;;;;;;;;;;;;10.67;76.75;96335.19;4886171;29;19975;-74
2022/05/03 07:23:47;;;;;;;;;;;;;;;10.84;76.31;96331.97;4876500;29;20303;-73
2022/05/03 07:26:13;;;;;;;;;;;;;;;10.92;76.88;96339.53;4885773;29;19995;-73
2022/05/03 07:28:39;;;;;;;;;;;;;;;11.14;77.70;96337.97;4887425;29;19994;-72
2022/05/03 07:31:05;;;;;;;;;;;;;;;11.46;75.14;96327.22;4888084;29;19968;-72
2022/05/03 07:33:31;;;;;;;;;;;;;;;11.77;74.64;96326.09;4891787;29;20406;-72
2022/05/03 07:35:57;;;;;;;;;;;;;;;12.08;73.26;96326.03;4891463;29;19975;-73
2022/05/03 07:38:23;;;;;;;;;;;;;;;12.23;72.66;96328.19;4886695;29;19964;-73
2022/05/03 07:40:49;;;;;;;;;;;;;;;12.27;72.18;96318.81;4889014;29;19971;-73
2022/05/03 07:43:15;;;;;;;;;;;;;;;12.27;71.41;96316.16;4887022;29;19964;-73
2022/05/03 07:45:41;;;;;;;;;;;;;;;12.19;72.08;96323.38;4890615;29;20291;-73
2022/05/03 07:48:07;;;;;;;;;;;;;;;12.13;72.22;96329.53;4889895;29;19995;-73
2022/05/03 07:51:03;;;;;;;;;;;;;;;12.09;72.59;96332.88;4865107;29;19973;-73
2022/05/03 07:53:28;;;;;;;;;;;;;;;12.12;72.21;96340.31;4885771;29;19968;-73
2022/05/03 07:55:54;;;;;;;;;;;;;;;12.13;72.38;96337.44;4890506;29;19977;-73
2022/05/03 07:58:22;;;;;;;;;;;;;;;12.22;72.68;96347.59;4889063;29;20007;-73
2022/05/03 08:00:48;;;;;;;;;;;;;;;12.36;72.27;96341.84;4868785;29;19952;-73
2022/05/03 08:03:14;;;;;;;;;;;;;;;12.51;72.44;96346.63;4884085;29;19957;-73
2022/05/03 08:05:40;;;;;;;;;;;;;;;12.64;72.34;96337.69;4890196;29;19955;-73
2022/05/03 08:08:06;;;;;;;;;;;;;;;12.80;71.64;96331.69;4893581;29;19993;-73
2022/05/03 08:10:32;;;;;;;;;;;;;;;12.96;71.96;96338.03;4886981;29;19994;-73
2022/05/03 08:12:58;;;;;;;;;;;;;;;13.11;71.26;96337.50;4887969;29;19965;-73
2022/05/03 08:15:24;;;;;;;;;;;;;;;13.19;70.54;96331.06;4893859;29;20487;-74
2022/05/03 08:17:50;;;;;;;;;;;;;;;13.33;69.93;96327.13;4894400;29;20459;-73
2022/05/03 08:20:16;;;;;;;;;;;;;;;13.40;68.64;96314.59;4886313;29;20041;-73
2022/05/03 08:22:43;;;;;;;;;;;;;;;13.42;69.21;96329.34;4886767;29;19987;-73
2022/05/03 08:25:09;;;;;;;;;;;;;;;13.43;68.28;96315.16;4882824;29;19960;-73
2022/05/03 08:27:40;;;;;;;;;;;;;;;13.47;67.85;96317.06;4882271;29;19979;-73
2022/05/03 08:30:07;;;;;;;;;;;;;;;13.51;68.23;96320.84;4883058;29;19968;-73
2022/05/03 08:32:33;;;;;;;;;;;;;;;13.66;68.42;96332.66;4882876;29;19965;-73
2022/05/03 08:34:58;;;;;;;;;;;;;;;13.82;68.08;96321.31;4883027;29;19970;-73
2022/05/03 08:42:55;;;;;;;;;;;;;;;14.69;65.88;96309.25;4882637;29;19956;-73
2022/05/03 08:45:21;;;;;;;;;;;;;;;14.67;65.02;96297.34;4882570;29;19967;-73
2022/05/03 08:47:48;;;;;;;;;;;;;;;14.68;64.78;96297.13;4882384;29;20424;-74
2022/05/03 08:50:18;;;;;;;;;;;;;;;14.80;65.78;96313.63;4882859;29;19957;-73
2022/05/03 08:53:01;;;;;;;;;;;;;;;14.91;65.73;96317.16;4882296;29;19986;-73
2022/05/03 08:55:27;;;;;;;;;;;;;;;14.88;64.93;96309.72;4882647;29;19976;-74
2022/05/03 08:57:53;;;;;;;;;;;;;;;14.96;65.07;96306.66;4882474;29;19958;-73
2022/05/03 09:00:19;;;;;;;;;;;;;;;15.07;64.17;96296.19;4882572;29;19962;-74
2022/05/03 09:02:46;;;;;;;;;;;;;;;15.23;63.84;96297.91;4881776;29;19960;-74
2022/05/03 09:05:13;;;;;;;;;;;;;;;15.43;63.83;96286.72;4882124;29;20420;-74
2022/05/03 09:07:44;;;;;;;;;;;;;;;15.71;64.04;96288.25;4882323;29;19977;-73
2022/05/03 09:10:16;;;;;;;;;;;;;;;15.90;62.88;96272.81;4882250;29;20464;-73
2022/05/03 09:12:44;;;;;;;;;;;;;;;16.09;62.32;96272.38;4882352;29;20411;-73
2022/05/03 09:15:11;;;;;;;;;;;;;;;16.23;61.01;96254.97;4882024;29;20338;-73
2022/05/03 09:17:37;;;;;;;;;;;;;;;16.33;61.96;96265.59;4882123;29;19978;-74
2022/05/03 09:25:49;;;;;;;;;;;;;;;16.60;62.03;96262.78;4890778;29;19953;-74
2022/05/03 09:28:15;;;;;;;;;;;;;;;16.90;61.00;96250.69;4892796;29;20001;-73
2022/05/03 09:30:45;;;;;;;;;;;;;;;17.03;59.97;96230.84;4891473;29;20347;-73
2022/05/03 09:33:14;;;;;;;;;;;;;;;17.10;60.41;96239.31;4884621;29;19965;-73
2022/05/03 09:35:40;;;;;;;;;;;;;;;17.21;60.66;96240.91;4888569;29;19958;-74
2022/05/03 09:38:06;;;;;;;;;;;;;;;17.39;60.30;96238.81;4896049;29;20493;-73
2022/05/03 09:40:36;;;;;;;;;;;;;;;17.56;60.97;96241.97;4892867;29;20390;-74
2022/05/03 09:43:05;;;;;;;;;;;;;;;17.56;59.56;96230.56;4886903;29;20375;-73
2022/05/03 09:45:31;;;;;;;;;;;;;;;17.69;59.88;96230.00;4891926;29;19967;-73
2022/05/03 09:47:59;;;;;;;;;;;;;;;17.82;59.02;96218.03;4892629;29;19953;-73
2022/05/03 09:50:28;;;;;;;;;;;;;;;18.02;58.20;96206.63;4892390;29;19964;-73
2022/05/03 09:52:54;;;;;;;;;;;;;;;18.29;56.27;96182.34;4887276;29;19965;-73
2022/05/03 09:55:31;;;;;;;;;;;;;;;18.48;55.27;96174.53;4886462;29;19982;-74
2022/05/03 09:58:01;;;;;;;;;;;;;;;18.48;53.29;96163.94;4890775;29;19954;-73
2022/05/03 10:00:27;;;;;;;;;;;;;;;18.57;54.53;96172.88;4879601;29;20428;-73
2022/05/03 10:02:53;;;;;;;;;;;;;;;18.56;54.19;96162.53;4887800;29;20031;-74
2022/05/03 10:05:21;;;;;;;;;;;;;;;18.37;56.35;96191.59;4893097;29;19967;-73
2022/05/03 10:07:48;;;;;;;;;;;;;;;18.13;54.57;96156.94;4890141;29;19964;-74
2022/05/03 10:10:17;;;;;;;;;;;;;;;18.01;55.95;96187.22;4890937;29;19959;-75
2022/05/03 10:12:43;;;;;;;;;;;;;;;18.14;57.38;96193.03;4886408;29;19950;-75
2022/05/03 10:15:10;;;;;;;;;;;;;;;18.20;56.80;96195.38;4885593;29;19961;-74
2022/05/03 10:20:42;;;;;;;;;;;;;;;18.37;56.93;96192.41;4892860;29;19980;-75
2022/05/03 10:23:46;;;;;;;;;;;;;;;18.55;55.73;96166.28;4893916;29;19956;-75
2022/05/03 10:26:12;;;;;;;;;;;;;;;18.85;53.58;96146.69;4830223;29;20341;-75
2022/05/03 10:28:56;;;;;;;;;;;;;;;19.00;53.62;96138.59;4838562;29;19993;-75
2022/05/03 10:31:22;;;;;;;;;;;;;;;19.24;52.52;96117.38;4867831;29;20342;-74
2022/05/03 10:33:48;;;;;;;;;;;;;;;19.57;53.12;96130.88;4891028;29;19964;-74
2022/05/03 10:36:35;;;;;;;;;;;;;;;19.89;51.61;96116.16;4883043;29;19969;-74
2022/05/03 10:39:05;;;;;;;;;;;;;;;20.05;51.74;96108.75;4889090;29;20419;-74
2022/05/03 10:41:32;;;;;;;;;;;;;;;19.96;50.56;96103.28;4893997;29;20331;-74
2022/05/03 10:44:17;;;;;;;;;;;;;;;19.79;51.34;96111.75;4889565;29;19975;-73
2022/05/03 10:46:49;;;;;;;;;;;;;;;19.55;51.44;96111.75;4890746;29;19961;-74
2022/05/03 10:49:15;;;;;;;;;;;;;;;19.37;50.69;96104.50;4886024;29;19967;-73
2022/05/03 10:51:42;;;;;;;;;;;;;;;19.29;50.55;96115.75;4884723;29;20352;-74
2022/05/03 10:54:08;;;;;;;;;;;;;;;19.23;51.73;96128.28;4877343;29;19962;-74
2022/05/03 10:56:34;;;;;;;;;;;;;;;19.17;51.21;96118.75;4883392;29;20072;-74
2022/05/03 10:59:16;;;;;;;;;;;;;;;19.14;52.86;96143.25;4892659;29;19961;-74
2022/05/03 11:01:55;;;;;;;;;;;;;;;19.07;50.52;96148.91;4893930;29;19958;-74
2022/05/03 11:04:21;;;;;;;;;;;;;;;19.01;50.35;96148.16;4892816;29;19964;-74
2022/05/03 11:06:49;;;;;;;;;;;;;;;19.02;50.73;96154.25;4884753;29;19976;-73
2022/05/03 11:09:34;;;;;;;;;;;;;;;18.98;48.10;96139.94;4890367;29;19964;-76
2022/05/03 11:12:04;;;;;;;;;;;;;;;18.93;50.75;96162.03;4873541;29;19959;-76
2022/05/03 11:14:30;;;;;;;;;;;;;;;18.89;50.04;96145.06;4884290;29;19963;-76
2022/05/03 11:17:01;;;;;;;;;;;;;;;18.85;50.17;96155.44;4888902;29;20306;-76
2022/05/03 11:19:27;;;;;;;;;;;;;;;18.85;49.79;96141.38;4894030;29;20348;-76
2022/05/03 11:21:53;;;;;;;;;;;;;;;18.85;50.24;96158.09;4880053;29;20024;-78
2022/05/03 11:24:26;;;;;;;;;;;;;;;18.86;48.90;96142.97;4879631;29;20357;-75
2022/05/03 11:26:56;;;;;;;;;;;;;;;18.86;49.73;96151.72;4880152;29;19959;-77
2022/05/03 11:29:32;;;;;;;;;;;;;;;18.90;51.06;96159.13;4879929;29;19951;-77
2022/05/03 11:31:58;;;;;;;;;;;;;;;18.90;52.25;96165.25;4879928;29;20324;-76
2022/05/03 11:37:01;;;;;;;;;;;;;;;18.82;48.64;96126.00;5320357;23;20001;-77
2022/05/03 11:39:28;;;;;;;;;;;;;;;18.84;49.92;96137.94;4844773;29;19970;-77
2022/05/03 11:41:54;;;;;;;;;;;;;;;19.08;49.31;96131.09;4861520;29;19956;-77
2022/05/03 11:44:20;;;;;;;;;;;;;;;19.40;50.04;96139.28;4861084;29;19959;-74
2022/05/03 11:46:47;;;;;;;;;;;;;;;19.66;47.36;96123.06;4861142;29;20369;-75
2022/05/03 11:49:14;;;;;;;;;;;;;;;20.00;47.40;96127.47;4862290;29;19962;-74
2022/05/03 11:57:26;;;;;;;;;;;;;;;20.76;44.88;96162.91;4865203;29;19972;-76
2022/05/03 11:59:56;;;;;;;;;;;;;;;20.73;45.89;96178.72;4865321;29;19963;-76
2022/05/03 12:02:23;;;;;;;;;;;;;;;20.61;45.16;96173.81;4864891;29;20316;-76
2022/05/03 12:05:04;;;;;;;;;;;;;;;20.19;41.40;96162.09;4865020;29;19965;-76
2022/05/03 12:07:34;;;;;;;;;;;;;;;20.14;46.69;96196.75;4860372;29;19959;-76
2022/05/03 12:10:00;;;;;;;;;;;;;;;20.29;47.84;96204.56;4865397;29;19971;-76
2022/05/03 12:12:45;;;;;;;;;;;;;;;20.25;45.58;96183.03;4878370;29;19968;-76
2022/05/03 12:15:12;;;;;;;;;;;;;;;20.01;46.46;96201.72;4865258;29;19965;-76
2022/05/03 12:17:59;;;;;;;;;;;;;;;19.91;46.11;96188.53;4864934;29;20013;-76
2022/05/03 12:20:27;;;;;;;;;;;;;;;19.82;46.80;96190.19;4855089;29;19964;-76
2022/05/03 12:23:08;;;;;;;;;;;;;;;19.83;48.78;96199.78;4865006;29;19954;-75
2022/05/03 12:25:35;;;;;;;;;;;;;;;19.92;47.64;96189.31;4855214;29;19967;-76
2022/05/03 12:28:04;;;;;;;;;;;;;;;19.79;44.65;96154.31;4864687;29;20334;-76
2022/05/03 12:30:31;;;;;;;;;;;;;;;19.71;43.69;96151.50;4878207;29;19979;-76
2022/05/03 12:33:07;;;;;;;;;;;;;;;19.51;44.52;96153.28;4864855;29;19960;-76
2022/05/03 12:35:35;;;;;;;;;;;;;;;19.38;43.80;96148.59;4857279;29;20317;-76
2022/05/03 12:38:09;;;;;;;;;;;;;;;19.56;44.93;96168.38;4864335;29;20307;-76
2022/05/03 12:40:42;;;;;;;;;;;;;;;19.67;42.58;96146.72;4864792;29;19967;-76
2022/05/03 12:43:08;;;;;;;;;;;;;;;19.62;44.26;96157.41;4864146;29;19970;-74
2022/05/03 12:45:34;;;;;;;;;;;;;;;19.59;44.19;96143.88;4864070;29;19962;-73
2022/05/03 12:48:00;;;;;;;;;;;;;;;19.52;43.46;96148.75;4864131;29;19959;-73
2022/05/03 12:50:27;;;;;;;;;;;;;;;19.45;44.19;96152.53;4864585;29;20494;-76
2022/05/03 12:52:52;;;;;;;;;;;;;;;19.36;43.02;96143.59;4864567;29;20336;-76
2022/05/03 12:55:19;;;;;;;;;;;;;;;19.44;43.56;96139.50;4863977;29;19965;-74
2022/05/03 13:00:32;;;;;;;;;;;;;;;20.26;42.60;96133.22;4863799;29;19962;-74
2022/05/03 13:03:00;;;;;;;;;;;;;;;20.66;43.41;96133.75;4863595;29;20336;-74
2022/05/03 13:05:26;;;;;;;;;;;;;;;20.81;43.06;96130.06;4864000;29;20351;-74
2022/05/03 13:07:52;;;;;;;;;;;;;;;20.75;42.66;96131.25;4863581;29;19968;-74
2022/05/03 13:10:20;;;;;;;;;;;;;;;20.59;40.98;96128.00;4862839;29;21434;-75
2022/05/03 13:12:46;;;;;;;;;;;;;;;20.43;40.73;96119.41;4863097;29;20293;-75
2022/05/03 13:15:12;;;;;;;;;;;;;;;20.50;42.39;96135.84;4863406;29;19971;-75
2022/05/03 13:17:37;;;;;;;;;;;;;;;20.73;43.29;96139.53;4863521;29;20025;-75
2022/05/03 13:20:04;;;;;;;;;;;;;;;20.79;39.42;96117.03;4863389;29;19960;-74
2022/05/03 13:22:31;;;;;;;;;;;;;;;20.90;40.98;96138.19;4863505;29;19967;-74
2022/05/03 13:24:57;;;;;;;;;;;;;;;21.11;40.98;96144.00;4863287;29;19962;-75
2022/05/03 13:27:23;;;;;;;;;;;;;;;21.12;41.57;96142.91;4863632;29;20022;-75
2022/05/03 13:29:49;;;;;;;;;;;;;;;21.01;40.79;96134.28;4863901;29;20020;-75
2022/05/03 13:32:15;;;;;;;;;;;;;;;20.69;38.85;96127.84;4863171;29;20382;-75
2022/05/03 13:34:40;;;;;;;;;;;;;;;20.46;41.10;96156.94;4863205;29;20050;-76
2022/05/03 13:40:29;;;;;;;;;;;;;;;19.89;42.26;96182.69;4811149;29;19993;-75
2022/05/03 13:42:56;;;;;;;;;;;;;;;19.80;43.40;96193.16;4876677;29;19960;-75
2022/05/03 13:45:22;;;;;;;;;;;;;;;19.62;43.69;96199.19;4870556;29;19965;-75
2022/05/03 13:47:48;;;;;;;;;;;;;;;19.21;43.20;96203.00;4881052;29;20446;-75